Time;durP1;ratioP1;P1;durP2;ratioP2;P2;SDS_P1;SDS_P2;PMS_P1;PMS_P2;Temp;Humidity;BMP_temperature;BMP_pressure;BME280_temperature;BME280_humidity;BME280_pressure;Samples;Min_cycle;Max_cycle;Signal;HPM_P1;HPM_P2
2023/09/11 00:01:09;;;;;;;5.83;3.30;;;;;;;18.95;62.47;98830.38;4977177;28;40810;-76
2023/09/11 00:03:37;;;;;;;4.33;3.40;;;;;;;18.92;61.96;98827.97;4993815;28;41593;-76
2023/09/11 00:06:05;;;;;;;3.70;3.37;;;;;;;18.90;61.94;98827.31;4992320;28;42757;-76
2023/09/11 00:08:34;;;;;;;4.00;3.30;;;;;;;18.85;61.64;98823.38;4975742;28;41158;-76
2023/09/11 00:11:01;;;;;;;3.77;3.37;;;;;;;18.80;61.46;98821.13;4976159;28;41916;-76
2023/09/11 00:13:31;;;;;;;3.47;3.10;;;;;;;18.78;61.17;98822.28;5010225;28;43228;-76
2023/09/11 00:15:59;;;;;;;3.70;3.00;;;;;;;18.74;61.20;98827.09;4992315;28;41384;-76
2023/09/11 00:18:26;;;;;;;3.13;2.83;;;;;;;18.69;61.34;98833.88;4992624;28;39970;-75
2023/09/11 00:20:54;;;;;;;3.67;3.20;;;;;;;18.54;60.99;98814.72;4992557;28;42775;-76
2023/09/11 00:23:22;;;;;;;3.70;3.03;;;;;;;18.60;61.46;98824.88;4992642;28;42776;-78
2023/09/11 00:25:49;;;;;;;3.73;3.30;;;;;;;18.45;61.36;98815.59;4976019;28;41385;-75
2023/09/11 00:28:17;;;;;;;3.13;2.77;;;;;;;18.49;61.42;98827.72;4992767;28;41861;-75
2023/09/11 00:30:46;;;;;;;3.00;2.70;;;;;;;18.44;61.20;98830.84;4992112;28;41711;-76
2023/09/11 00:33:13;;;;;;;3.97;3.10;;;;;;;18.40;61.55;98823.25;4992451;28;43647;-75
2023/09/11 00:35:44;;;;;;;3.17;2.87;;;;;;;18.36;61.51;98824.53;4978374;28;42394;-76
2023/09/11 00:38:12;;;;;;;3.37;3.07;;;;;;;18.30;61.81;98816.06;4994186;28;40952;-76
2023/09/11 00:40:39;;;;;;;3.80;3.00;;;;;;;18.27;61.76;98824.41;4979944;28;40962;-75
2023/09/11 00:43:07;;;;;;;3.77;3.13;;;;;;;18.00;61.69;98788.63;4980780;28;42194;-75
2023/09/11 00:45:35;;;;;;;3.37;2.60;;;;;;;18.08;61.59;98805.69;4996273;28;42531;-75
2023/09/11 00:48:05;;;;;;;3.47;3.17;;;;;;;18.13;61.34;98822.19;4980443;28;40098;-76
2023/09/11 00:50:33;;;;;;;3.53;2.80;;;;;;;18.09;61.41;98815.41;4980287;28;41699;-76
2023/09/11 00:53:01;;;;;;;3.83;3.10;;;;;;;17.96;61.71;98806.84;4996891;28;42531;-75
2023/09/11 00:55:29;;;;;;;2.90;2.60;;;;;;;18.03;61.81;98813.31;4980164;28;42649;-75
2023/09/11 00:57:57;;;;;;;4.40;3.00;;;;;;;17.98;62.20;98818.25;4996502;28;40896;-75
2023/09/11 01:00:24;;;;;;;3.10;2.60;;;;;;;17.76;62.03;98786.41;4964122;28;40732;-75
2023/09/11 01:02:52;;;;;;;3.10;2.80;;;;;;;17.92;62.01;98814.34;4980257;28;42379;-75
2023/09/11 01:05:22;;;;;;;3.53;2.70;;;;;;;17.85;61.89;98801.63;4979941;28;42667;-75
2023/09/11 01:07:50;;;;;;;3.10;2.80;;;;;;;17.87;62.06;98813.06;4991824;28;41112;-75
2023/09/11 01:10:18;;;;;;;3.73;3.17;;;;;;;17.84;62.43;98802.63;4979245;28;40571;-75
2023/09/11 01:12:46;;;;;;;3.20;2.90;;;;;;;17.82;62.81;98801.91;4995618;28;42799;-75
2023/09/11 01:15:14;;;;;;;3.30;3.00;;;;;;;17.80;62.93;98799.38;4978612;28;41224;-75
2023/09/11 01:17:47;;;;;;;3.20;2.77;;;;;;;17.78;63.20;98803.19;4995294;28;40995;-75
2023/09/11 01:20:38;;;;;;;5.33;3.37;;;;;;;17.75;63.43;98800.81;4978618;28;40746;-75
2023/09/11 01:23:29;;;;;;;3.90;3.50;;;;;;;17.72;63.18;98798.41;4977926;28;42516;-75
2023/09/11 01:26:12;;;;;;;3.00;2.57;;;;;;;17.70;63.43;98798.53;4978645;28;42293;-75
2023/09/11 01:29:12;;;;;;;3.27;2.97;;;;;;;17.63;63.29;98791.19;4992408;28;41690;-76
2023/09/11 01:31:45;;;;;;;3.70;2.90;;;;;;;17.65;63.25;98802.66;4988601;28;41750;-76
2023/09/11 01:34:14;;;;;;;3.33;2.93;;;;;;;17.63;63.37;98808.13;4979177;28;42106;-75
2023/09/11 01:36:41;;;;;;;4.07;3.57;;;;;;;17.61;62.94;98804.72;4978456;28;41453;-75
2023/09/11 01:39:09;;;;;;;3.33;2.90;;;;;;;17.54;63.34;98782.19;4996137;28;41930;-75
2023/09/11 01:41:40;;;;;;;2.90;2.70;;;;;;;17.37;63.28;98769.50;4979527;28;42100;-75
2023/09/11 01:44:14;;;;;;;3.50;3.20;;;;;;;17.46;63.41;98785.53;4993160;28;43432;-75
2023/09/11 01:46:45;;;;;;;2.87;2.57;;;;;;;17.51;63.34;98794.03;4994745;28;42386;-75
2023/09/11 01:49:14;;;;;;;3.23;2.70;;;;;;;17.49;63.23;98801.34;4979905;28;39729;-75
2023/09/11 01:51:42;;;;;;;2.77;2.57;;;;;;;17.45;63.10;98794.56;5013263;28;41815;-75
2023/09/11 01:54:11;;;;;;;3.10;2.77;;;;;;;17.44;63.34;98802.72;4979577;28;42184;-74
2023/09/11 01:56:38;;;;;;;4.53;3.00;;;;;;;17.40;63.41;98791.47;4979516;28;42518;-75
2023/09/11 01:59:06;;;;;;;3.77;3.07;;;;;;;17.37;63.69;98797.09;4979742;28;40948;-75
2023/09/11 02:01:34;;;;;;;3.70;3.00;;;;;;;17.36;63.64;98795.41;4979315;28;41671;-75
2023/09/11 02:04:03;;;;;;;3.87;3.20;;;;;;;17.35;63.59;98795.56;4995692;28;42715;-76
2023/09/11 02:06:31;;;;;;;2.90;2.60;;;;;;;17.32;63.99;98787.78;4993649;28;43160;-75
2023/09/11 02:08:59;;;;;;;3.20;2.90;;;;;;;17.30;64.02;98790.63;4994331;28;41061;-75
2023/09/11 02:11:26;;;;;;;3.03;2.77;;;;;;;17.29;63.90;98788.09;4977844;28;40957;-76
2023/09/11 02:13:54;;;;;;;4.93;2.87;;;;;;;17.21;64.04;98778.06;4994568;28;43446;-76
2023/09/11 02:16:21;;;;;;;2.80;2.40;;;;;;;17.24;63.87;98791.19;4986398;28;42329;-76
2023/09/11 02:18:49;;;;;;;3.53;3.23;;;;;;;17.23;63.80;98793.00;4994605;28;40893;-75
2023/09/11 02:21:18;;;;;;;3.10;2.80;;;;;;;17.22;63.84;98790.47;4994316;28;42778;-75
2023/09/11 02:23:46;;;;;;;3.97;2.97;;;;;;;17.19;63.93;98790.75;4994407;28;41850;-76
2023/09/11 02:26:13;;;;;;;2.90;2.70;;;;;;;16.96;64.41;98755.34;4977594;28;41306;-75
2023/09/11 02:28:42;;;;;;;3.10;2.73;;;;;;;17.16;64.28;98791.03;4978337;28;40721;-75
2023/09/11 02:31:09;;;;;;;2.87;2.57;;;;;;;17.14;64.18;98790.31;4994014;28;42552;-76
2023/09/11 02:33:37;;;;;;;4.90;3.50;;;;;;;17.10;64.22;98789.75;4994553;28;43862;-75
2023/09/11 02:36:05;;;;;;;3.43;2.80;;;;;;;17.06;64.27;98782.16;4977395;28;42353;-75
2023/09/11 02:38:34;;;;;;;4.13;3.00;;;;;;;17.08;64.41;98785.50;5012514;28;41104;-75
2023/09/11 02:41:01;;;;;;;2.63;2.43;;;;;;;17.07;64.46;98797.19;4978636;28;40531;-75
2023/09/11 02:43:29;;;;;;;3.30;2.70;;;;;;;17.05;64.71;98793.84;4995224;28;43698;-75
2023/09/11 02:45:56;;;;;;;3.10;2.80;;;;;;;17.04;64.64;98789.47;4978538;28;41554;-75
2023/09/11 02:48:24;;;;;;;4.00;2.87;;;;;;;17.02;64.57;98792.28;4978878;28;39813;-75
2023/09/11 02:50:51;;;;;;;3.17;2.73;;;;;;;17.00;65.11;98790.72;4994833;28;42483;-75
2023/09/11 02:53:20;;;;;;;3.27;2.83;;;;;;;16.98;65.06;98787.34;4994865;28;43159;-76
2023/09/11 02:55:49;;;;;;;3.40;2.70;;;;;;;16.96;64.83;98791.97;4994595;28;42047;-76
2023/09/11 02:58:16;;;;;;;3.33;2.87;;;;;;;16.93;64.89;98785.09;4993862;28;39829;-75
2023/09/11 03:00:44;;;;;;;3.10;2.47;;;;;;;16.91;65.04;98783.53;4994672;28;41452;-75
2023/09/11 03:03:12;;;;;;;4.97;2.90;;;;;;;16.88;65.10;98784.63;4994930;28;43849;-75
2023/09/11 03:05:39;;;;;;;3.27;2.87;;;;;;;16.85;65.14;98796.44;4977429;28;42364;-75
2023/09/11 03:08:07;;;;;;;3.10;2.80;;;;;;;16.83;65.47;98781.53;4960882;28;40812;-75
2023/09/11 03:10:35;;;;;;;2.60;2.40;;;;;;;16.76;65.22;98769.69;4993178;28;41698;-75
2023/09/11 03:13:05;;;;;;;5.47;3.20;;;;;;;16.78;65.03;98779.28;4977360;28;42806;-76
2023/09/11 03:15:33;;;;;;;3.47;3.17;;;;;;;16.75;65.05;98776.88;4977079;28;40965;-76
2023/09/11 03:18:01;;;;;;;3.90;2.80;;;;;;;16.70;65.28;98775.56;4961403;28;39940;-75
2023/09/11 03:20:29;;;;;;;3.17;2.83;;;;;;;16.71;65.05;98774.59;4993344;28;41710;-77
2023/09/11 03:22:57;;;;;;;3.83;3.43;;;;;;;16.69;65.08;98777.41;4993520;28;43525;-76
2023/09/11 03:25:26;;;;;;;3.20;2.90;;;;;;;16.65;65.30;98776.00;4993145;28;42304;-76
2023/09/11 03:27:53;;;;;;;2.90;2.60;;;;;;;16.64;64.95;98779.66;4977206;28;40146;-76
2023/09/11 03:30:22;;;;;;;3.23;2.93;;;;;;;16.56;65.35;98763.41;4976811;28;40832;-76
2023/09/11 03:32:51;;;;;;;3.37;3.07;;;;;;;16.60;65.49;98772.00;4977186;28;42795;-76
2023/09/11 03:35:19;;;;;;;3.23;2.47;;;;;;;16.57;65.74;98770.44;4977089;28;42388;-76
2023/09/11 03:37:47;;;;;;;3.90;3.50;;;;;;;16.57;65.83;98764.25;4993801;28;40862;-76
2023/09/11 03:40:16;;;;;;;4.23;3.03;;;;;;;16.54;65.69;98762.69;4977892;28;41791;-76
2023/09/11 03:42:44;;;;;;;3.27;2.50;;;;;;;16.53;65.57;98758.34;4961966;28;42785;-76
2023/09/11 03:45:12;;;;;;;3.10;2.77;;;;;;;16.51;66.09;98762.97;4994146;28;41830;-76
2023/09/11 03:47:41;;;;;;;4.23;3.23;;;;;;;16.48;66.03;98755.22;4977883;28;40093;-76
2023/09/11 03:50:09;;;;;;;3.03;2.60;;;;;;;16.47;66.17;98759.72;4977565;28;41625;-76
2023/09/11 03:52:37;;;;;;;3.47;3.10;;;;;;;16.46;66.01;98758.00;4993907;28;42463;-75
2023/09/11 03:55:05;;;;;;;3.60;3.20;;;;;;;16.46;66.32;98763.34;4977418;28;41232;-76
2023/09/11 03:57:32;;;;;;;4.10;3.13;;;;;;;16.45;66.03;98756.31;4977340;28;39940;-75
2023/09/11 04:00:00;;;;;;;3.80;2.83;;;;;;;16.40;66.12;98752.38;5011313;28;41826;-76
2023/09/11 04:02:28;;;;;;;4.03;3.23;;;;;;;16.43;66.37;98749.44;4993810;28;43753;-76
2023/09/11 04:04:57;;;;;;;3.37;2.97;;;;;;;16.35;66.80;98733.22;4993960;28;41413;-76
2023/09/11 04:07:24;;;;;;;3.13;2.83;;;;;;;16.41;66.39;98748.72;4991788;28;40780;-75
2023/09/11 04:09:52;;;;;;;3.43;3.13;;;;;;;16.40;66.42;98744.34;4992795;28;42127;-76
2023/09/11 04:12:20;;;;;;;2.90;2.60;;;;;;;16.39;66.62;98748.00;4976261;28;42686;-76
2023/09/11 04:14:47;;;;;;;3.43;3.03;;;;;;;16.38;66.33;98743.63;4992962;28;43327;-76
2023/09/11 04:17:15;;;;;;;3.83;3.30;;;;;;;16.36;66.82;98745.59;4992546;28;41687;-76
2023/09/11 04:19:43;;;;;;;3.73;3.07;;;;;;;16.16;66.75;98721.47;4992938;28;40910;-76
2023/09/11 04:22:13;;;;;;;2.97;2.57;;;;;;;16.34;66.68;98747.56;4976425;28;41816;-76
2023/09/11 04:24:41;;;;;;;4.87;2.80;;;;;;;16.32;66.82;98750.34;4992890;28;42358;-76
2023/09/11 04:27:08;;;;;;;2.40;2.20;;;;;;;16.31;67.00;98762.06;4976392;28;39826;-75
2023/09/11 04:29:36;;;;;;;3.17;2.70;;;;;;;16.28;66.66;98746.28;4992513;28;40483;-76
2023/09/11 04:32:04;;;;;;;3.63;2.83;;;;;;;16.29;67.20;98744.47;4975810;28;43793;-76
2023/09/11 04:34:32;;;;;;;3.07;2.77;;;;;;;16.29;67.30;98747.97;4992466;28;42597;-75
2023/09/11 04:36:59;;;;;;;3.63;3.23;;;;;;;16.31;67.02;98747.84;4976390;28;40743;-76
2023/09/11 04:39:28;;;;;;;3.30;3.00;;;;;;;16.31;67.34;98753.19;4977202;28;41217;-76
2023/09/11 04:41:56;;;;;;;3.80;2.67;;;;;;;16.29;67.39;98744.47;4977026;28;43485;-76
2023/09/11 04:44:24;;;;;;;5.50;3.33;;;;;;;16.30;67.98;98748.81;4993264;28;43174;-76
2023/09/11 04:46:51;;;;;;;3.60;3.20;;;;;;;16.28;67.68;98753.44;4976207;28;41362;-76
2023/09/11 04:49:19;;;;;;;3.47;3.17;;;;;;;16.27;67.96;98751.75;4974896;28;40719;-76
2023/09/11 04:51:47;;;;;;;3.70;2.97;;;;;;;16.25;67.58;98749.22;4975528;28;42773;-75
2023/09/11 04:54:15;;;;;;;2.97;2.70;;;;;;;16.24;67.58;98752.03;4991981;28;43300;-74
2023/09/11 04:56:44;;;;;;;3.40;3.10;;;;;;;16.22;67.54;98751.31;4991651;28;39825;-75
2023/09/11 04:59:11;;;;;;;4.10;3.40;;;;;;;16.21;67.67;98753.13;4991891;28;42115;-75
2023/09/11 05:01:39;;;;;;;3.03;2.73;;;;;;;16.19;67.39;98756.94;4991492;28;42662;-75
2023/09/11 05:04:07;;;;;;;3.07;2.77;;;;;;;16.20;67.38;98755.94;4959424;28;41412;-75
2023/09/11 05:06:35;;;;;;;3.00;2.70;;;;;;;16.21;67.36;98757.63;4991462;28;41606;-75
2023/09/11 05:09:03;;;;;;;3.23;2.73;;;;;;;16.20;67.70;98758.59;4975596;28;42761;-74
2023/09/11 05:11:32;;;;;;;3.37;2.43;;;;;;;16.21;67.85;98754.94;4975187;28;43362;-75
2023/09/11 05:14:00;;;;;;;3.13;2.83;;;;;;;16.21;67.76;98758.47;4975172;28;41464;-75
2023/09/11 05:16:28;;;;;;;3.67;3.10;;;;;;;16.23;67.30;98766.34;4975020;28;40100;-75
2023/09/11 05:18:56;;;;;;;3.63;2.63;;;;;;;16.21;67.40;98763.81;4975185;28;41802;-75
2023/09/11 05:21:24;;;;;;;3.23;2.93;;;;;;;16.24;67.45;98765.38;4976707;28;41591;-76
2023/09/11 05:23:51;;;;;;;3.23;2.93;;;;;;;16.26;67.42;98766.94;4994426;28;41165;-75
2023/09/11 05:26:19;;;;;;;3.20;2.87;;;;;;;16.28;67.25;98777.50;4994829;28;41349;-76
2023/09/11 05:28:47;;;;;;;3.17;2.87;;;;;;;16.22;67.10;98754.81;5012312;28;42669;-75
2023/09/11 05:31:17;;;;;;;3.13;2.73;;;;;;;16.28;67.17;98764.13;4978321;28;41579;-75
2023/09/11 05:33:44;;;;;;;3.73;3.10;;;;;;;16.36;67.17;98777.66;4994355;28;41284;-75
2023/09/11 05:36:12;;;;;;;3.47;3.10;;;;;;;16.39;67.28;98769.38;4994175;28;40394;-75
2023/09/11 05:38:39;;;;;;;3.80;3.40;;;;;;;16.42;67.23;98769.97;4995003;28;41242;-76
2023/09/11 05:41:07;;;;;;;4.17;3.20;;;;;;;16.46;68.29;98774.06;4979258;28;41767;-75
2023/09/11 05:43:36;;;;;;;3.73;3.33;;;;;;;16.50;67.99;98770.13;4995583;28;42679;-75
2023/09/11 05:46:03;;;;;;;3.70;3.40;;;;;;;16.57;68.42;98774.97;4994906;28;40156;-75
2023/09/11 05:48:32;;;;;;;3.33;3.03;;;;;;;16.58;68.48;98772.13;4979044;28;40762;-76
2023/09/11 05:51:00;;;;;;;3.10;2.70;;;;;;;16.71;68.40;98774.59;4995378;28;42113;-75
2023/09/11 05:53:28;;;;;;;3.40;3.10;;;;;;;16.79;68.08;98780.97;4978895;28;41358;-75
2023/09/11 05:55:56;;;;;;;4.20;3.80;;;;;;;16.88;67.84;98784.63;4995335;28;40959;-75
2023/09/11 05:58:23;;;;;;;4.30;3.63;;;;;;;16.96;68.05;98781.25;4994988;28;40764;-75
2023/09/11 06:00:53;;;;;;;4.23;3.80;;;;;;;17.06;67.84;98782.16;4995266;28;42429;-75
2023/09/11 06:03:20;;;;;;;3.30;3.00;;;;;;;17.16;67.95;98788.38;4994993;28;41789;-72
2023/09/11 06:05:49;;;;;;;4.03;3.40;;;;;;;17.11;67.70;98758.47;5012075;28;41892;-74
2023/09/11 06:08:17;;;;;;;4.23;2.83;;;;;;;17.39;67.85;98791.63;4975787;28;42998;-71
2023/09/11 06:10:45;;;;;;;4.07;3.67;;;;;;;17.50;67.69;98789.66;4993445;28;42046;-74
2023/09/11 06:13:13;;;;;;;4.33;3.40;;;;;;;17.66;67.35;98801.66;4993644;28;42916;-73
2023/09/11 06:15:41;;;;;;;3.50;3.20;;;;;;;17.79;67.03;98791.50;5019424;28;41072;-77
2023/09/11 06:18:09;;;;;;;3.83;3.27;;;;;;;17.94;67.05;98787.38;4997234;28;42887;-77
2023/09/11 06:20:37;;;;;;;4.00;3.63;;;;;;;18.09;66.95;98793.13;4997278;28;42007;-76
2023/09/11 06:23:06;;;;;;;5.00;3.63;;;;;;;18.24;67.33;98795.22;5013713;28;43321;-77
2023/09/11 06:25:34;;;;;;;4.77;3.53;;;;;;;18.41;67.30;98792.75;4997016;28;39818;-74
2023/09/11 06:28:01;;;;;;;4.27;3.87;;;;;;;18.58;67.62;98790.16;5031335;28;41988;-75
2023/09/11 06:30:29;;;;;;;4.87;4.20;;;;;;;18.75;67.96;98796.59;5031059;28;43054;-74
2023/09/11 06:32:56;;;;;;;5.23;4.57;;;;;;;18.92;67.71;98786.88;5013150;28;43251;-76
2023/09/11 06:35:24;;;;;;;6.07;4.90;;;;;;;19.10;67.71;98784.25;5013197;28;40496;-77
2023/09/11 06:37:51;;;;;;;5.03;4.33;;;;;;;19.26;67.45;98795.16;5014565;28;41804;-80
2023/09/11 06:40:22;;;;;;;5.90;4.53;;;;;;;19.40;67.55;98796.47;5032066;28;42915;-83
2023/09/11 06:42:49;;;;;;;4.43;4.03;;;;;;;19.59;67.20;98797.19;5014241;28;42026;-78
2023/09/11 06:45:17;;;;;;;5.77;4.23;;;;;;;19.78;66.75;98789.97;5014810;28;40961;-79
2023/09/11 06:47:44;;;;;;;7.30;4.60;;;;;;;19.94;66.86;98796.28;5014274;28;41776;-74
2023/09/11 06:50:12;;;;;;;4.43;4.03;;;;;;;20.07;66.54;98795.88;5031550;28;43494;-72
2023/09/11 06:52:40;;;;;;;4.67;4.23;;;;;;;20.30;66.74;98797.03;5013503;28;42437;-78
2023/09/11 06:55:09;;;;;;;6.53;4.90;;;;;;;20.44;65.84;98792.97;4973996;28;41266;-80
2023/09/11 06:57:40;;;;;;;5.57;4.03;;;;;;;20.65;65.17;98790.69;4974208;28;42688;-78
2023/09/11 07:00:11;;;;;;;6.47;4.67;;;;;;;20.80;65.01;98777.47;4958202;28;41796;-82
2023/09/11 07:02:40;;;;;;;4.93;4.43;;;;;;;21.17;64.44;98796.78;4973864;28;41731;-77
2023/09/11 07:05:08;;;;;;;4.83;4.33;;;;;;;21.45;63.93;98801.94;4990022;28;42300;-76
2023/09/11 07:07:35;;;;;;;6.20;4.27;;;;;;;21.72;63.55;98800.78;4954935;28;41931;-78
2023/09/11 07:10:04;;;;;;;5.40;4.33;;;;;;;22.14;62.48;98806.00;4969184;28;42100;-80
2023/09/11 07:12:32;;;;;;;6.00;4.83;;;;;;;22.68;61.50;98814.34;4953148;28;42283;-79
2023/09/11 07:15:03;;;;;;;5.20;4.60;;;;;;;23.02;61.31;98806.81;4937743;28;39819;-79
2023/09/11 07:17:30;;;;;;;5.83;5.23;;;;;;;23.27;61.17;98811.06;4952831;28;40841;-79
2023/09/11 07:19:58;;;;;;;7.07;4.97;;;;;;;23.49;59.82;98811.28;4953121;28;44658;-80
2023/09/11 07:22:25;;;;;;;6.50;4.83;;;;;;;23.72;59.37;98820.28;4936934;28;41474;-80
2023/09/11 07:24:53;;;;;;;5.27;4.77;;;;;;;23.82;58.13;98815.47;4953502;28;42305;-80
2023/09/11 07:27:20;;;;;;;9.17;4.80;;;;;;;24.07;57.63;98821.50;4970256;28;41107;-74
2023/09/11 07:29:48;;;;;;;5.30;4.80;;;;;;;24.26;58.12;98822.88;4988859;28;43706;-77
2023/09/11 07:32:18;;;;;;;5.20;4.70;;;;;;;24.51;56.91;98827.03;4971746;28;41280;-79
2023/09/11 07:34:45;;;;;;;5.90;5.07;;;;;;;25.05;55.86;98824.09;4988546;28;41174;-78
2023/09/11 07:37:13;;;;;;;6.07;5.13;;;;;;;25.65;53.73;98831.06;4987999;28;41869;-78
2023/09/11 07:39:41;;;;;;;7.10;5.10;;;;;;;26.30;52.98;98830.03;4989632;28;41689;-78
2023/09/11 07:42:10;;;;;;;5.30;4.80;;;;;;;26.84;51.83;98838.34;4956148;28;42416;-78
2023/09/11 07:44:38;;;;;;;6.63;4.63;;;;;;;27.13;50.70;98840.00;4988973;28;40719;-79
2023/09/11 07:47:05;;;;;;;5.83;4.43;;;;;;;27.50;50.08;98844.94;4956946;28;41882;-78
2023/09/11 07:49:34;;;;;;;5.27;4.77;;;;;;;28.16;48.81;98861.47;4989412;28;42651;-82
2023/09/11 07:52:02;;;;;;;5.47;4.83;;;;;;;28.80;46.87;98857.31;4973266;28;42396;-81
2023/09/11 07:54:33;;;;;;;6.10;4.50;;;;;;;29.65;45.38;98837.91;4957333;28;41480;-87
2023/09/11 07:57:01;;;;;;;6.73;5.00;;;;;;;31.55;41.48;98869.22;4958335;28;40826;-89
2023/09/11 08:00:08;;;;;;;5.10;4.65;;;;;;;33.72;37.47;98881.19;4974235;28;42739;-87
2023/09/11 08:02:37;;;;;;;4.80;4.30;;;;;;;34.45;35.78;98885.88;4997232;28;41701;-81
2023/09/11 08:05:07;;;;;;;4.93;4.43;;;;;;;34.09;36.40;98902.78;5030881;28;41066;-79
2023/09/11 08:07:34;;;;;;;5.88;4.68;;;;;;;33.43;37.38;98894.03;5015861;28;40983;-78
2023/09/11 08:10:02;;;;;;;6.20;4.70;;;;;;;32.91;37.59;98901.34;5013946;28;41927;-77
2023/09/11 08:12:30;;;;;;;4.50;4.10;;;;;;;32.35;38.38;98886.25;4995671;28;42297;-79
2023/09/11 08:14:58;;;;;;;4.97;4.43;;;;;;;31.97;39.09;98883.84;4995854;28;41192;-75
2023/09/11 08:17:27;;;;;;;6.20;5.47;;;;;;;31.65;39.26;98879.69;4995263;28;41669;-77
2023/09/11 08:19:55;;;;;;;5.50;4.67;;;;;;;31.41;39.78;98884.97;5011810;28;42744;-75
2023/09/11 08:22:24;;;;;;;5.90;4.90;;;;;;;31.37;39.64;98877.47;5011813;28;42929;-74
2023/09/11 08:24:51;;;;;;;5.20;4.70;;;;;;;31.46;39.16;98880.72;5011844;28;41852;-80
2023/09/11 08:27:20;;;;;;;5.37;4.37;;;;;;;31.49;39.25;98841.94;4995775;28;41166;-79
2023/09/11 08:29:48;;;;;;;6.47;5.13;;;;;;;32.11;39.29;98870.78;5012063;28;43075;-82
2023/09/11 08:32:15;;;;;;;5.20;4.77;;;;;;;32.69;37.41;98892.00;4995474;28;42708;-77
2023/09/11 08:34:43;;;;;;;5.00;4.50;;;;;;;33.60;36.55;98894.13;5011713;28;41244;-77
2023/09/11 08:37:10;;;;;;;5.67;4.93;;;;;;;34.68;34.52;98897.78;5011538;28;41910;-77
2023/09/11 08:39:39;;;;;;;5.30;4.75;;;;;;;35.52;33.67;98901.25;5012331;28;41323;-78
2023/09/11 08:42:10;;;;;;;4.78;4.22;;;;;;;36.00;33.14;98904.06;4996029;28;41115;-77
2023/09/11 08:44:38;;;;;;;4.45;4.05;;;;;;;36.43;32.71;98901.47;5012494;28;41751;-77
2023/09/11 08:47:07;;;;;;;5.55;4.90;;;;;;;37.08;31.60;98909.47;4995941;28;42132;-77
2023/09/11 08:49:43;;;;;;;5.78;4.10;;;;;;;37.93;30.06;98911.00;4979669;28;42699;-78
2023/09/11 08:52:14;;;;;;;3.95;3.65;;;;;;;39.30;28.21;98908.31;5010040;28;42300;-80
2023/09/11 09:06:38;;;;;;;4.03;3.60;;;;;;;47.47;19.38;98942.91;5012919;28;42254;-81
2023/09/11 09:09:07;;;;;;;4.82;4.18;;;;;;;48.56;18.96;98931.66;5015455;28;39938;-83
2023/09/11 09:11:37;;;;;;;4.78;4.38;;;;;;;49.38;18.51;98923.34;4998384;28;40470;-81
2023/09/11 09:14:07;;;;;;;4.18;3.70;;;;;;;49.47;17.99;98932.50;4998340;28;41764;-83
2023/09/11 09:16:35;;;;;;;5.10;4.70;;;;;;;49.79;17.53;98927.94;5017221;28;43094;-76
2023/09/11 09:19:04;;;;;;;4.47;4.07;;;;;;;49.82;17.61;98911.16;4998130;28;40130;-75
2023/09/11 09:21:31;;;;;;;4.22;3.92;;;;;;;48.87;16.82;98928.38;5031771;28;42198;-81
2023/09/11 09:24:09;;;;;;;4.25;3.85;;;;;;;47.57;18.07;98908.00;5014363;28;44116;-79
2023/09/11 09:26:56;;;;;;;4.10;3.80;;;;;;;47.03;19.04;98919.75;5014962;28;20224;-76
2023/09/11 09:29:24;;;;;;;4.10;3.78;;;;;;;46.34;19.25;98911.41;5030721;28;41052;-76
2023/09/11 09:31:52;;;;;;;3.83;3.50;;;;;;;45.17;19.67;98902.81;4995701;28;40821;-74
2023/09/11 09:34:21;;;;;;;4.20;3.80;;;;;;;44.50;20.56;98893.66;4997991;28;43243;-77
2023/09/11 09:36:52;;;;;;;3.83;3.42;;;;;;;44.14;20.44;98894.50;5031344;28;42482;-75
2023/09/11 09:39:20;;;;;;;8.68;3.97;;;;;;;43.15;21.15;98881.16;5029825;28;42502;-75
2023/09/11 09:41:54;;;;;;;3.90;3.60;;;;;;;42.41;21.71;98873.88;4996045;28;41778;-75
2023/09/11 09:44:29;;;;;;;4.25;3.95;;;;;;;41.59;22.76;98874.19;5012112;28;43837;-75
2023/09/11 09:46:56;;;;;;;4.18;3.75;;;;;;;40.48;23.48;98851.13;4998426;28;42032;-75
2023/09/11 09:49:26;;;;;;;5.20;4.50;;;;;;;39.83;24.00;98847.66;5015050;28;40881;-75
2023/09/11 09:51:53;;;;;;;5.00;4.45;;;;;;;39.22;25.30;98845.16;5012883;28;41654;-75
2023/09/11 09:54:21;;;;;;;4.40;4.05;;;;;;;38.78;25.38;98837.50;5010498;28;43449;-75
2023/09/11 09:56:48;;;;;;;5.43;4.53;;;;;;;38.49;25.77;98835.56;5031244;28;43207;-82
2023/09/11 09:59:24;;;;;;;4.03;3.70;;;;;;;38.09;25.97;98826.97;5033270;28;41107;-81
2023/09/11 10:01:52;;;;;;;4.70;4.20;;;;;;;37.62;26.63;98806.94;4998537;28;40639;-82
2023/09/11 10:04:21;;;;;;;5.60;4.20;;;;;;;37.42;27.04;98820.69;5015238;28;42726;-82
2023/09/11 10:06:55;;;;;;;4.90;4.45;;;;;;;37.04;27.12;98822.72;4995631;28;42000;-83
2023/09/11 10:09:22;;;;;;;5.00;4.03;;;;;;;36.83;27.56;98804.38;5029546;28;41000;-81
2023/09/11 10:11:51;;;;;;;4.50;4.10;;;;;;;36.94;27.19;98806.09;4997264;28;42311;-83
2023/09/11 10:14:20;;;;;;;4.35;3.58;;;;;;;37.26;27.62;98781.97;4997476;28;42888;-82
2023/09/11 10:16:48;;;;;;;5.38;4.50;;;;;;;37.40;27.87;98805.22;5013837;28;42405;-83
2023/09/11 10:19:16;;;;;;;4.35;3.95;;;;;;;37.44;28.05;98796.41;5014548;28;40887;-84
2023/09/11 10:21:43;;;;;;;4.45;4.07;;;;;;;37.38;28.13;98798.31;5010432;28;41702;-82
2023/09/11 10:24:12;;;;;;;4.13;3.80;;;;;;;37.25;28.51;98794.13;4995350;28;43002;-84
2023/09/11 10:26:45;;;;;;;4.13;3.70;;;;;;;37.24;28.17;98781.41;5030004;28;43212;-83
2023/09/11 10:29:22;;;;;;;4.57;4.25;;;;;;;37.75;26.74;98796.22;5010772;28;40573;-83
2023/09/11 10:31:54;;;;;;;4.32;3.92;;;;;;;38.47;26.41;98797.91;5014052;28;40627;-82
2023/09/11 10:34:23;;;;;;;3.75;3.45;;;;;;;39.53;25.55;98801.56;5014243;28;42824;-83
2023/09/11 10:36:56;;;;;;;3.88;3.58;;;;;;;40.87;23.72;98804.66;5011894;28;42332;-84
2023/09/11 10:39:25;;;;;;;3.88;3.33;;;;;;;42.56;22.41;98809.53;5013302;28;39572;-83
2023/09/11 10:41:53;;;;;;;5.15;3.63;;;;;;;44.48;21.19;98823.31;5013950;28;41782;-83
2023/09/11 10:44:21;;;;;;;4.10;3.70;;;;;;;45.59;20.08;98836.19;4998758;28;42334;-84
2023/09/11 10:46:50;;;;;;;3.78;3.47;;;;;;;45.27;20.26;98829.81;4997064;28;40945;-83
2023/09/11 10:49:19;;;;;;;3.53;3.22;;;;;;;44.44;20.87;98816.69;5013197;28;39953;-83
2023/09/11 10:51:47;;;;;;;3.78;3.47;;;;;;;43.61;21.60;98805.81;5012285;28;40597;-83
2023/09/11 10:54:16;;;;;;;4.55;3.33;;;;;;;42.97;21.83;98813.25;5014111;28;41641;-83
2023/09/11 10:56:45;;;;;;;4.75;3.22;;;;;;;42.69;22.32;98800.38;4997011;28;41128;-83
2023/09/11 10:59:15;;;;;;;3.50;3.20;;;;;;;42.69;22.56;98788.41;4998911;28;39896;-83
2023/09/11 11:01:45;;;;;;;3.88;3.47;;;;;;;42.85;21.79;98787.84;4996282;28;41870;-84
2023/09/11 11:04:15;;;;;;;4.07;3.60;;;;;;;42.76;22.32;98800.81;5012540;28;41632;-83
2023/09/11 11:06:45;;;;;;;6.00;4.25;;;;;;;42.70;21.78;98767.78;5010960;28;42674;-88
2023/09/11 11:09:30;;;;;;;3.58;3.28;;;;;;;42.75;21.73;98790.81;5013657;28;41388;-85
2023/09/11 11:12:02;;;;;;;5.72;3.78;;;;;;;42.64;22.40;98786.56;5011844;28;40798;-84
2023/09/11 11:14:30;;;;;;;3.80;3.50;;;;;;;42.59;22.14;98783.88;5023122;28;41881;-82
2023/09/11 11:17:02;;;;;;;4.03;3.72;;;;;;;42.63;23.01;98773.78;5006920;28;41071;-81
2023/09/11 11:19:31;;;;;;;4.00;3.70;;;;;;;42.93;21.93;98777.94;5006201;28;41115;-82
2023/09/11 11:22:01;;;;;;;5.20;3.72;;;;;;;43.36;21.40;98770.09;4977222;28;40854;-82
2023/09/11 11:24:35;;;;;;;4.00;3.35;;;;;;;43.70;22.00;98772.41;4993536;28;41986;-83
2023/09/11 11:27:20;;;;;;;5.55;3.63;;;;;;;43.91;22.02;98761.56;4991640;28;42327;-85
2023/09/11 11:29:54;;;;;;;4.70;3.63;;;;;;;43.68;21.36;98755.97;5008766;28;40986;-88
2023/09/11 11:32:23;;;;;;;10.13;3.80;;;;;;;43.79;22.28;98769.69;4977404;28;41381;-84
2023/09/11 11:34:51;;;;;;;4.03;3.25;;;;;;;44.14;21.71;98752.09;4977040;28;42040;-86
2023/09/11 11:37:21;;;;;;;3.58;3.28;;;;;;;45.65;20.10;98754.53;4977611;28;41212;-85
2023/09/11 11:39:48;;;;;;;4.70;4.30;;;;;;;47.32;18.38;98780.69;4980079;28;40282;-87
2023/09/11 11:42:25;;;;;;;3.85;3.55;;;;;;;48.57;17.66;98765.47;4998249;28;42020;-87
2023/09/11 11:44:54;;;;;;;3.58;3.28;;;;;;;49.75;16.64;98753.22;4997746;28;42032;-88
2023/09/11 11:47:23;;;;;;;3.83;3.53;;;;;;;51.14;15.91;98788.91;4997702;28;42458;-85
2023/09/11 11:49:53;;;;;;;4.15;3.67;;;;;;;52.01;15.28;98773.56;4997609;28;40524;-83
2023/09/11 11:52:22;;;;;;;4.15;3.85;;;;;;;53.12;14.32;98787.78;4997474;28;42249;-82
2023/09/11 11:54:50;;;;;;;5.18;4.75;;;;;;;54.11;14.20;98783.56;5013566;28;43536;-85